Atlantic - Newfoundland: Past 24 Hour Conditions

 

Blanc-Sablon Airport

08:00 PM AST 02 September 2014
This table is a summary of hourly weather conditions for the past 24 hours.
Date / Time
(AST)
Wind(knots) Conditions Visibility(km) Pressure(kPa) Air tempC) Relative humidity(%) Dew pointC)
02 September 2014
20:00 SW 11 Cloudy 24 101.2 14 94 13
19:00 SSW 10 Mostly Cloudy 24 101.3 14 92 13
18:00 WSW 5 Partly Cloudy 24 101.3 13 91 12
17:00 SW 7 Mainly Sunny 24 101.4 14 85 12
16:00 SW 11 Mainly Sunny 24 101.4 15 82 12
15:00 SW 8 Mainly Sunny 24 101.4 16 76 11
14:00 WSW 8 Mainly Sunny 24 101.5 16 69 11
13:00 SW 8 Mainly Sunny 24 101.5 16 73 11
12:00 WSW 9 Mainly Sunny 24 101.5 17 61 9
11:00 SSW 7 Mainly Sunny 24 101.6 18 54 8
10:00 SSW 7 Mainly Sunny 24 101.6 17 55 8
9:00 SE 3 Mainly Sunny 24 101.7 15 72 10
8:00 SSE 6 Mainly Sunny 24 101.7 14 81 11
7:00 ENE 3 Mainly Sunny 24 101.7 12 88 10
6:00 NE 6 Mainly Sunny 24 101.8 8 95 8
5:00 NE 6 Mainly Clear 24 101.8 7 97 7
4:00 NE 5 Mainly Clear 24 101.8 7 96 7
3:00 NE 5 Mainly Clear 24 101.8 7 93 6
2:00 NE 4 Mainly Clear 24 101.8 8 84 5
1:00 NE 5 Mainly Clear 24 101.5 8 84 6
0:00 NE 5 Mainly Clear 24 101.7 8 87 6
01 September 2014
23:00 ENE 5 Partly Cloudy 24 101.7 7 88 6
22:00 NE 5 Partly Cloudy 24 101.7 8 93 7
21:00 NE 3 Mainly Clear 24 101.7 8 89 7
20:00 NNE 2 Mainly Clear 24 101.7 10 82 7
 
Map of Atlantic - Newfoundland marine weather areas Southwestern Grand Banks - 44138 Banquereau - 44139 Tail of the Bank - 44140 Nickerson Bank - 44251 Northeast Burgeo Bank - 44255 Blanc-Sablon Airport Cap Whittle Chevery Natashquan Airport Heath Point Miscou Island Grand Étang Ingonish Beach North Mountain St.Paul Island J.A. Douglas McCurdy Sydney Airport Charlottetown Airport East Point North Cape Argentia Bonavista Burgeo Cape Race Corner Brook Daniel's Harbour Englee Ferolle Point La Scie Port aux Basques Rocky Harbour Sagona Island St. Anthony Airport St. John's Int'l Airport St. Lawrence Stephenville Airport Twillingate Winterland Wreckhouse Cartwright Airport Mary's Harbour Grates Cove Pool's Island Marticot Island Long Pond Îles de la Madeleine Airport
Legend: buoyBuoy land stationLand Station